MAPA DE AEROPUERTO

INFORMACIÓN METAR y TAF


Deprecated: The each() function is deprecated. This message will be suppressed on further calls in /home/customer/www/clickair-va.com/public_html/VAM/vam/helpers/get_metar.php on line 20
METAR FOR LEZG
ADDS - METARS form results

(2054 UTC 18 August 2022)
Data provider http://aviationweather.gov/metar/data/
 
METAR text: LEZG 182030Z 30018KT 280V340 CAVOK 21/12 Q1019
Conditions at: LEZG (ZARAGOZA (MIL/CI, ES) observed 2030 UTC 18 August 2022
Temperature: 21.0°C (70°F)
Dewpoint: 12.0°C (54°F) [RH = 56%]
Pressure (altimeter): 30.09 inches Hg (1019.0 mb)
Winds: from the WNW (300 degrees) at 21 MPH (18 knots; 9.3 m/s)
Visibility: 6 or more miles (10+ km)
Ceiling: ceiling and visibility are OK
Clouds: unknown
Weather: no significant weather observed at this time

METAR text: LEZG 182000Z 30021KT CAVOK 21/12 Q1019
Conditions at: LEZG (ZARAGOZA (MIL/CI, ES) observed 2000 UTC 18 August 2022
Temperature: 21.0°C (70°F)
Dewpoint: 12.0°C (54°F) [RH = 56%]
Pressure (altimeter): 30.09 inches Hg (1019.0 mb)
Winds: from the WNW (300 degrees) at 24 MPH (21 knots; 10.8 m/s)
Visibility: 6 or more miles (10+ km)
Ceiling: ceiling and visibility are OK
Clouds: unknown
Weather: no significant weather observed at this time

Forecast for: LEZG (ZARAGOZA (MIL/CI, ES)
Text: TAF LEZG 181700Z 1818/1918 31015KT 9999 FEW060 TX32/1915Z TN17/1905Z
Forecast period: 1800 UTC 18 August 2022 to 1800 UTC 19 August 2022
Forecast type: FROM: standard forecast or significant change
Winds: from the NW (310 degrees) at 17 MPH (15 knots; 7.7 m/s)
Visibility: 6 or more miles (10+ km)
Ceiling: at least 12,000 feet AGL
Clouds: few clouds at 6000 feet AGL
Weather: no significant weather forecast for this period
Text: TEMPO 1818/1819 31020G30KT
Forecast period: 1800 to 1900 UTC 18 August 2022
Forecast type: TEMPORARY: The following changes expected for less than half the time period
Winds: from the NW (310 degrees) at 23 MPH (20 knots; 10.3 m/s)
gusting to 34 MPH (30 knots; 15.4 m/s)
Visibility: missing
Ceiling: unknown
Clouds: missing
Weather: no significant weather forecast for this period